Logo AVAMET
Benvolgut visitant, si us plau, ingressa Recuperar contrasenya
AVAMET paisatges

Inforatge Borriana Ajuntament

Dades diàries. Acumulats / Últims 30 dies disponibles

Data Temperatura (°C) Humitat rel. (%) Pressió rel. (hPa) Vent (km/h) Precipitació
Mínima Mitjana Màxima Amplitud
tèrmica
Mínima Mitjana Màxima Mínima Mitjana Màxima Predom. Mitjana Ràfega
màxima
Total
(mm)
Índex-n
Mínima Mitjana Màxima Mínima Mitjana Màxima n
0 a 1
P0 max
mm 5'
Dades mensuals acumulades fins l'últim dia disponible
06/2020 17,9 18,1 18,2 22,0 24,6 25,2 26,3 8,4 57 75 89 1.006 1.016 1.020   6,2 30,6 0,0
Dades anuals acumulades fins l'últim dia disponible
2020 3,2 11,6 20,3 15,2 10,6 19,3 32,0 28,8 22 73 95 999 1.023 1.038   5,9 82,1 366,8
Últims 30 dies disponibles
03-06-2020 17,9     22,3     26,3 8,4 57 77 89 1.006 1.011 1.017 S 7,1 29,0 0,0
02-06-2020 18,2     21,9     24,6 6,4 66 76 84 1.016 1.018 1.020 E 5,8 29,0 0,0
01-06-2020 18,1     21,8     24,6 6,5 60 72 83 1.017 1.018 1.020 E 5,6 30,6 0,0
31-05-2020 16,4     21,1     25,1 8,7 53 72 83 1.016 1.017 1.019 S 7,1 30,6 0,0
30-05-2020 17,2     21,3     24,0 6,8 57 72 80 1.017 1.019 1.020 SE 7,4 33,8 0,0
29-05-2020 15,6     21,1     25,2 9,6 49 67 77 1.017 1.020 1.025 SE 7,4 38,6 0,0
28-05-2020 16,4     20,9     24,1 7,7 59 73 85 1.024 1.027 1.030 WNW 7,6 32,2 0,0
27-05-2020 17,1     21,7     26,8 9,7 43 70 84 1.027 1.028 1.030 ENE 10,5 41,8 0,0
26-05-2020 16,8     21,2     24,9 8,1 61 76 89 1.027 1.029 1.030 E 4,7 22,5 0,0
25-05-2020 17,2     20,2     25,4 8,2 57 77 84 1.028 1.029 1.030 WNW 3,4 17,7 2,4
24-05-2020 19,8     21,4     23,1 3,3 67 76 88 1.030 1.031 1.032 E 8,7 32,2 0,0
23-05-2020 18,2     22,8     26,6 8,4 54 71 81 1.027 1.028 1.030 E 5,3 20,9 0,0
22-05-2020 18,8     22,8     26,5 7,7 58 74 88 1.023 1.025 1.028 E 5,8 25,7 0,0
21-05-2020 18,4     22,8     26,2 7,8 56 70 81 1.020 1.022 1.024 WNW 4,8 24,1 0,0
20-05-2020 17,5     22,4     25,8 8,3 56 70 81 1.018 1.019 1.020 E 6,6 25,7 0,0
19-05-2020 17,3     21,4     26,2 8,9 44 68 81 1.018 1.020 1.023 WNW 6,6 22,5 0,0
18-05-2020 15,4     19,7     23,3 7,9 49 70 82 1.022 1.023 1.025 WNW 7,6 29,0 0,0
17-05-2020 14,9     19,0     22,2 7,3 53 69 83 1.022 1.023 1.025 WNW 6,8 25,7 0,0
16-05-2020 16,2     18,3     21,9 5,7 59 74 88 1.018 1.019 1.022 WNW 5,5 25,7 0,0
15-05-2020 12,8     17,4     21,1 8,3 55 73 84 1.012 1.015 1.018 WNW 6,1 33,8 0,0
14-05-2020 14,1     16,4     18,1 4,0 70 80 91 1.007 1.008 1.012 WNW 3,5 43,5 20,8 0,45 2,40
13-05-2020 13,4     19,3     26,1 12,7 39 68 89 1.006 1.008 1.010 SE 8,0 48,3 0,0
12-05-2020 17,2     19,3     21,9 4,7 54 71 91 1.010 1.012 1.013 ENE 8,7 45,1 3,0 0,39 0,60
11-05-2020 14,9     21,8     27,7 12,8 29 52 83 1.007 1.009 1.013 WSW 9,2 40,2 0,0
10-05-2020 16,2     19,7     25,4 9,2 42 74 89 1.005 1.007 1.012 WNW 5,8 33,8 3,6
09-05-2020 17,6     19,8     22,8 5,2 68 80 88 1.012 1.015 1.019 E 5,1 27,4 0,0
08-05-2020 16,2     19,5     22,4 6,2 68 78 88 1.017 1.020 1.022 ENE 8,4 49,9 0,0
07-05-2020 17,2     20,8     25,3 8,1 57 74 83 1.021 1.022 1.023 WNW 6,8 30,6 0,0
06-05-2020 16,5     21,0     24,7 8,2 65 77 92 1.018 1.019 1.022 E 4,8 22,5 0,0
05-05-2020 16,9     20,5     24,2 7,3 63 79 91 1.016 1.017 1.019 E 4,7 24,1 0,0
Últims 13 mesos disponibles
05/2020 12,8 16,7 20,3 20,8 18,1 24,7 32,0 19,2 49 71 80 1.007 1.020 1.031 WNW 6,6 49,9 29,8
04/2020 8,0 12,6 18,1 15,8 15,2 19,6 28,2 20,2 49 78 90 1.008 1.019 1.029 WNW 5,6 46,7 147,8
03/2020 5,8 10,4 14,7 13,9 11,3 17,6 24,9 19,1 43 71 91 1.008 1.020 1.030 WNW 6,9 82,1 107,8
02/2020 6,5 10,0 13,7 14,1 14,2 18,8 25,8 19,3 47 72 87 1.015 1.028 1.036 WNW 4,7 48,3 0,0
01/2020 3,2 7,4 12,6 10,9 10,6 15,5 21,0 17,8 58 75 92 1.021 1.028 1.035 WNW 5,9 72,4 81,4
12/2019 6,0 10,3 17,2 13,6 12,6 17,6 25,8 19,8 47 71 91 1.004 1.021 1.036 WNW 5,7 75,6 102,0
11/2019 6,9 12,1 19,3 15,6 15,4 20,0 28,3 21,4 41 56 77 1.000 1.013 1.021 WNW 6,5 54,7 3,0
10/2019 10,5 16,4 20,2 20,0 15,6 24,1 28,4 17,9 48 71 84 1.009 1.019 1.025 WNW 5,5 45,1 18,8
09/2019 15,2 20,1 23,6 23,4 21,2 27,1 32,1 16,9 52 73 82 1.012 1.021 1.028 S 6,9 59,6 83,2
08/2019 17,6 22,0 25,2 25,9 26,8 29,6 33,3 15,7 56 73 80 1.013 1.019 1.023 SSO 6,5 59,6 39,8
07/2019 21,4 22,6 24,5 26,4 27,7 30,0 33,6 12,2 51 68 80 1.008 1.017 1.024 S 6,7 45,0 12,4
06/2019 11,9 18,3 22,7 22,5 21,5 26,3 34,4 22,5 44 66 79 1.011 1.018 1.025 SSE 7,4 50,0 0,0
05/2019 10,1 14,3 17,5 17,9 17,6 21,8 27,9 17,8 53 69 85 1.007 1.017 1.026 S 6,9 53,7 12,6
Tots els anys disponibles
2019 3,1 14,4 25,2 18,1 11,7 22,2 34,4 31,3 28 66 91 996 1.020 1.037 S 6,6 75,6 317,2
Temperatura (°C)
Humitat relativa (%)
Velocitat del vent i ràfega màxima (km/h)
Direcció del vent (°)
Pressió (hPa)
Precipitació (mm)
Nota sobre les dades: s'avisa a l'usuari de la provisionalitat i no oficialitat d'aquestes dades
Logo AVAMET blanc
Web allotjada a Sollutia
Llicència de Creative CommonsLa web d'AVAMET i els seus continguts estan subjectes a una llicència de
Reconeixement - No Comercial - Compartir igual
Últimes estacions: Biar - IES Biar (Soci), Xodos - la Vega (Soci), la Vall d'Alba - Centre (Ajuntament soci), Chera (Ajuntament soci) - - -